Captain Ron L — WDD5492 — position and weather

sailwx.info

Track history (hours):
 
Tides and Currents Weather Stations Pressure Air Temp Water Temp Dewpoint Dewpoint Depression Visibility Wind Speed Wind Dir Waves Ship Positions

Captain Ron L

Owner: Vulcan Materials Company, Richmond, VA. More information available from US FCC via Universal Licensing System and Coast Guard Vessel Documentation Center.

Last reported at 2018-Aug-20 16:30 UTC. Time now 2018-Aug-20 16:48 UTC.
Position N 36°50' W 076°16'.

Length 16 m; draft 2.3 m.

Type: Tug. MMSI: 367159130.

Date/timePositionNaut miles runAvg speedWind from/ knotsBaromVisibWave heightAir tempDewpointWater temp
2018-Aug-20 16:30N 36°50' W 076°16'1 1.1
2018-Aug-20 16:03N 36°50' W 076°16'0 4.8
2018-Aug-20 16:00N 36°50' W 076°16'1 0.8
2018-Aug-20 15:12N 36°50' W 076°15'1 3.5
2018-Aug-20 15:02N 36°50' W 076°15'0 1.3
2018-Aug-20 14:48N 36°50' W 076°16'0 0.1
2018-Aug-20 14:30N 36°50' W 076°16'1 1.3
2018-Aug-20 13:50N 36°50' W 076°15'0 0.2
2018-Aug-20 13:10N 36°50' W 076°15'0 0.0
2018-Aug-20 13:02N 36°50' W 076°15'0 0.0
2018-Aug-20 12:53N 36°50' W 076°15'0 0.0
2018-Aug-20 12:19N 36°50' W 076°15'0 0.1
2018-Aug-20 11:58N 36°50' W 076°15'0 0.0
2018-Aug-20 11:02N 36°50' W 076°15'0 0.7
2018-Aug-20 11:00N 36°50' W 076°15'2 3.7
2018-Aug-20 10:29N 36°50' W 076°17'  
2018-Aug-17 20:56N 36°50' W 076°17'1 1.9
2018-Aug-17 20:30N 36°50' W 076°16'1 1.0
2018-Aug-17 19:58N 36°50' W 076°16'1 1.3
2018-Aug-17 19:15N 36°50' W 076°15'0 0.0
2018-Aug-17 18:48N 36°50' W 076°15'1 1.5
2018-Aug-17 18:15N 36°50' W 076°16'1 2.6
2018-Aug-17 17:54N 36°50' W 076°15'0 0.5
2018-Aug-17 17:30N 36°50' W 076°15'0 0.2
2018-Aug-17 16:55N 36°50' W 076°15'1 1.6
2018-Aug-17 16:24N 36°50' W 076°16'0 0.0
2018-Aug-17 15:53N 36°50' W 076°16'1 1.8
2018-Aug-17 15:30N 36°50' W 076°17'3 5.7
2018-Aug-17 15:00N 36°51' W 076°20'4 3.5
2018-Aug-17 14:00N 36°50' W 076°16'0 0.4
2018-Aug-17 13:30N 36°50' W 076°16'1 1.8
2018-Aug-17 13:00N 36°50' W 076°15'2 4.4
2018-Aug-17 12:30N 36°50' W 076°17'0 0.0
2018-Aug-17 12:00N 36°50' W 076°17'0 0.0
2018-Aug-17 11:30N 36°50' W 076°17'0 0.0
2018-Aug-17 11:00N 36°50' W 076°17'0 0.0
2018-Aug-16 18:40N 36°50' W 076°17'0 0.0
2018-Aug-16 18:31N 36°50' W 076°17'1 2.1
2018-Aug-16 18:00N 36°50' W 076°16'0 0.9
2018-Aug-16 17:31N 36°50' W 076°17'1 1.2
2018-Aug-16 17:01N 36°50' W 076°17'0 0.0
2018-Aug-16 16:31N 36°50' W 076°17'0 0.0
2018-Aug-16 16:00N 36°50' W 076°17'0 0.0
2018-Aug-16 15:30N 36°50' W 076°17'0 0.0
2018-Aug-16 15:01N 36°50' W 076°17'0 0.0
2018-Aug-16 14:30N 36°50' W 076°17'0 0.0
2018-Aug-16 14:00N 36°50' W 076°17'0 0.0
2018-Aug-16 13:30N 36°50' W 076°17'0 0.0
2018-Aug-16 13:00N 36°50' W 076°17'0 0.0
2018-Aug-16 12:30N 36°50' W 076°17'0 0.4
2018-Aug-16 12:00N 36°51' W 076°17'  
Track history (hours):
 
Tides and Currents Weather Stations Pressure Air Temp Water Temp Dewpoint Dewpoint Depression Visibility Wind Speed Wind Dir Waves Ship Positions

Captain Ron L

Owner: Vulcan Materials Company, Richmond, VA. More information available from US FCC via Universal Licensing System and Coast Guard Vessel Documentation Center.

Last reported at 2018-Aug-20 16:30 UTC. Time now 2018-Aug-20 16:48 UTC.
Position N 36°50' W 076°16'.

Length 16 m; draft 2.3 m.

Type: Tug. MMSI: 367159130.

Date/timePositionNaut miles runAvg speedWind from/ knotsBaromVisibWave heightAir tempDewpointWater temp
2018-Aug-20 16:30N 36°50' W 076°16'1 1.1
2018-Aug-20 16:03N 36°50' W 076°16'0 4.8
2018-Aug-20 16:00N 36°50' W 076°16'1 0.8
2018-Aug-20 15:12N 36°50' W 076°15'1 3.5
2018-Aug-20 15:02N 36°50' W 076°15'0 1.3
2018-Aug-20 14:48N 36°50' W 076°16'0 0.1
2018-Aug-20 14:30N 36°50' W 076°16'1 1.3
2018-Aug-20 13:50N 36°50' W 076°15'0 0.2
2018-Aug-20 13:10N 36°50' W 076°15'0 0.0
2018-Aug-20 13:02N 36°50' W 076°15'0 0.0
2018-Aug-20 12:53N 36°50' W 076°15'0 0.0
2018-Aug-20 12:19N 36°50' W 076°15'0 0.1
2018-Aug-20 11:58N 36°50' W 076°15'0 0.0
2018-Aug-20 11:02N 36°50' W 076°15'0 0.7
2018-Aug-20 11:00N 36°50' W 076°15'2 3.7
2018-Aug-20 10:29N 36°50' W 076°17'  
2018-Aug-17 20:56N 36°50' W 076°17'1 1.9
2018-Aug-17 20:30N 36°50' W 076°16'1 1.0
2018-Aug-17 19:58N 36°50' W 076°16'1 1.3
2018-Aug-17 19:15N 36°50' W 076°15'0 0.0
2018-Aug-17 18:48N 36°50' W 076°15'1 1.5
2018-Aug-17 18:15N 36°50' W 076°16'1 2.6
2018-Aug-17 17:54N 36°50' W 076°15'0 0.5
2018-Aug-17 17:30N 36°50' W 076°15'0 0.2
2018-Aug-17 16:55N 36°50' W 076°15'1 1.6
2018-Aug-17 16:24N 36°50' W 076°16'0 0.0
2018-Aug-17 15:53N 36°50' W 076°16'1 1.8
2018-Aug-17 15:30N 36°50' W 076°17'3 5.7
2018-Aug-17 15:00N 36°51' W 076°20'4 3.5
2018-Aug-17 14:00N 36°50' W 076°16'0 0.4
2018-Aug-17 13:30N 36°50' W 076°16'1 1.8
2018-Aug-17 13:00N 36°50' W 076°15'2 4.4
2018-Aug-17 12:30N 36°50' W 076°17'0 0.0
2018-Aug-17 12:00N 36°50' W 076°17'0 0.0
2018-Aug-17 11:30N 36°50' W 076°17'0 0.0
2018-Aug-17 11:00N 36°50' W 076°17'0 0.0
2018-Aug-16 18:40N 36°50' W 076°17'0 0.0
2018-Aug-16 18:31N 36°50' W 076°17'1 2.1
2018-Aug-16 18:00N 36°50' W 076°16'0 0.9
2018-Aug-16 17:31N 36°50' W 076°17'1 1.2
2018-Aug-16 17:01N 36°50' W 076°17'0 0.0
2018-Aug-16 16:31N 36°50' W 076°17'0 0.0
2018-Aug-16 16:00N 36°50' W 076°17'0 0.0
2018-Aug-16 15:30N 36°50' W 076°17'0 0.0
2018-Aug-16 15:01N 36°50' W 076°17'0 0.0
2018-Aug-16 14:30N 36°50' W 076°17'0 0.0
2018-Aug-16 14:00N 36°50' W 076°17'0 0.0
2018-Aug-16 13:30N 36°50' W 076°17'0 0.0
2018-Aug-16 13:00N 36°50' W 076°17'0 0.0
2018-Aug-16 12:30N 36°50' W 076°17'0 0.4
2018-Aug-16 12:00N 36°51' W 076°17'  

Dump ship's entire track history